Time;durP1;ratioP1;P1;durP2;ratioP2;P2;SDS_P1;SDS_P2;PMS_P1;PMS_P2;Temp;Humidity;BMP_temperature;BMP_pressure;BME280_temperature;BME280_humidity;BME280_pressure;Samples;Min_cycle;Max_cycle;Signal;HPM_P1;HPM_P2
2022/01/28 00:01:15;;;;;;;;;;;;;;;-139.48;100.00;61774.03;5016491;28;19933;-73
2022/01/28 00:04:11;;;;;;;;;;;;;;;-139.48;100.00;61774.03;5016416;28;19941;-73
2022/01/28 00:06:55;;;;;;;;;;;;;;;-139.48;100.00;61774.03;5015252;28;19924;-73
2022/01/28 00:09:39;;;;;;;;;;;;;;;-139.48;100.00;61774.03;5001147;28;19980;-73
2022/01/28 00:12:24;;;;;;;;;;;;;;;-139.48;100.00;61774.03;5001080;28;20427;-73
2022/01/28 00:15:19;;;;;;;;;;;;;;;-139.48;100.00;61774.03;5015991;28;20359;-72
2022/01/28 00:36:30;;;;;;;;;;;;;;;-139.48;100.00;61774.03;5015005;28;19924;-73
2022/01/28 00:39:38;;;;;;;;;;;;;;;-139.48;100.00;61774.03;5015064;28;20269;-72
2022/01/28 00:42:22;;;;;;;;;;;;;;;-139.48;100.00;61774.03;5015461;28;19952;-72
2022/01/28 00:45:06;;;;;;;;;;;;;;;-139.48;100.00;61774.03;5015423;28;19975;-72
2022/01/28 00:47:50;;;;;;;;;;;;;;;-139.48;100.00;61774.03;5015331;28;20453;-73
2022/01/28 00:50:34;;;;;;;;;;;;;;;-139.48;100.00;61774.03;5013958;28;20075;-72
2022/01/28 00:53:18;;;;;;;;;;;;;;;-139.48;100.00;61774.03;5015223;28;19933;-72
2022/01/28 00:56:02;;;;;;;;;;;;;;;-139.48;100.00;61774.03;5014165;28;19924;-72
2022/01/28 00:58:46;;;;;;;;;;;;;;;-139.48;100.00;61774.03;5013913;28;20388;-72
2022/01/28 01:01:30;;;;;;;;;;;;;;;-139.48;100.00;61774.03;5014343;28;19925;-72
2022/01/28 01:04:14;;;;;;;;;;;;;;;-139.48;100.00;61774.03;5014039;28;19928;-72
2022/01/28 01:06:57;;;;;;;;;;;;;;;-139.48;100.00;61774.03;5013733;28;19925;-72
2022/01/28 01:09:41;;;;;;;;;;;;;;;-139.48;100.00;61774.03;5014732;28;19941;-72
2022/01/28 01:12:27;;;;;;;;;;;;;;;-139.48;100.00;61774.03;5015353;28;19963;-72
2022/01/28 01:15:14;;;;;;;;;;;;;;;-139.48;100.00;61774.03;5014886;28;20038;-72
2022/01/28 01:18:04;;;;;;;;;;;;;;;-139.48;100.00;61774.03;5013547;28;19978;-72
2022/01/28 01:23:34;;;;;;;;;;;;;;;-139.48;100.00;61774.03;5013656;28;20012;-72
2022/01/28 01:26:18;;;;;;;;;;;;;;;-139.48;100.00;61774.03;5013457;28;20300;-72
2022/01/28 01:29:02;;;;;;;;;;;;;;;-139.48;100.00;61774.03;5013251;28;19924;-72
2022/01/28 01:31:46;;;;;;;;;;;;;;;-139.48;100.00;61774.03;5014505;28;19940;-72
2022/01/28 01:34:30;;;;;;;;;;;;;;;-139.48;100.00;61774.03;5013504;28;19928;-72
2022/01/28 01:37:14;;;;;;;;;;;;;;;-139.48;100.00;61774.03;5014339;28;19928;-72
2022/01/28 01:39:58;;;;;;;;;;;;;;;-139.48;100.00;61774.03;5013036;28;20001;-72
2022/01/28 01:42:51;;;;;;;;;;;;;;;-139.48;100.00;61774.03;5013068;28;19941;-72
2022/01/28 01:46:02;;;;;;;;;;;;;;;-139.48;100.00;61774.03;5012911;28;19923;-72
2022/01/28 01:54:45;;;;;;;;;;;;;;;-139.48;100.00;61774.03;5013523;28;19928;-72
2022/01/28 01:57:30;;;;;;;;;;;;;;;-139.48;100.00;61774.03;5012723;28;19992;-72
2022/01/28 02:00:14;;;;;;;;;;;;;;;-139.48;100.00;61774.03;5012675;28;19924;-72
2022/01/28 02:02:58;;;;;;;;;;;;;;;-139.48;100.00;61774.03;5014009;28;20416;-72
2022/01/28 02:05:42;;;;;;;;;;;;;;;-139.48;100.00;61774.03;5014024;28;19924;-72
2022/01/28 02:08:26;;;;;;;;;;;;;;;-139.48;100.00;61774.03;4998842;28;19928;-72
2022/01/28 02:11:10;;;;;;;;;;;;;;;-139.48;100.00;61774.03;5013860;28;20051;-73
2022/01/28 02:13:54;;;;;;;;;;;;;;;-139.48;100.00;61774.03;5012859;28;19928;-72
2022/01/28 02:16:38;;;;;;;;;;;;;;;-139.48;100.00;61774.03;5013457;28;19928;-72
2022/01/28 02:19:22;;;;;;;;;;;;;;;-139.48;100.00;61774.03;5012554;28;20016;-72
2022/01/28 02:22:06;;;;;;;;;;;;;;;-139.48;100.00;61774.03;5013507;28;20351;-73
2022/01/28 02:24:50;;;;;;;;;;;;;;;-139.48;100.00;61774.03;5013458;28;20385;-72
2022/01/28 02:27:33;;;;;;;;;;;;;;;-139.48;100.00;61774.03;5012561;28;19932;-72
2022/01/28 02:30:18;;;;;;;;;;;;;;;-139.48;100.00;61774.03;5012783;28;19924;-72
2022/01/28 02:33:10;;;;;;;;;;;;;;;-139.48;100.00;61774.03;5012649;28;19976;-72
2022/01/28 02:35:55;;;;;;;;;;;;;;;-139.48;100.00;61774.03;5012394;28;19923;-73
2022/01/28 02:38:39;;;;;;;;;;;;;;;-139.48;100.00;61774.03;5013388;28;20404;-71
2022/01/28 02:41:26;;;;;;;;;;;;;;;-139.48;100.00;61774.03;5012856;28;19924;-73
2022/01/28 02:44:38;;;;;;;;;;;;;;;-139.48;100.00;61774.03;4999131;28;19972;-72
2022/01/28 02:47:32;;;;;;;;;;;;;;;-139.48;100.00;61774.03;5012780;28;20381;-72
2022/01/28 02:50:18;;;;;;;;;;;;;;;-139.48;100.00;61774.03;5035809;22;19932;-70
2022/01/28 02:53:05;;;;;;;;;;;;;;;-139.48;100.00;61774.03;5012734;28;19945;-70
2022/01/28 02:55:56;;;;;;;;;;;;;;;-139.48;100.00;61774.03;5013402;28;20324;-70
2022/01/28 02:58:40;;;;;;;;;;;;;;;-139.48;100.00;61774.03;5013058;28;19941;-70
2022/01/28 03:01:24;;;;;;;;;;;;;;;-139.48;100.00;61774.03;4994145;28;19924;-69
2022/01/28 03:04:11;;;;;;;;;;;;;;;-139.48;100.00;61774.03;4996773;28;20052;-69
2022/01/28 03:06:54;;;;;;;;;;;;;;;-139.48;100.00;61774.03;4996685;28;19979;-70
2022/01/28 03:12:58;;;;;;;;;;;;;;;-139.48;100.00;61774.03;4996700;28;20341;-70
2022/01/28 03:15:50;;;;;;;;;;;;;;;-139.48;100.00;61774.03;4996589;28;19925;-70
2022/01/28 03:24:23;;;;;;;;;;;;;;;-139.48;100.00;61774.03;4997426;28;19931;-70
2022/01/28 03:27:12;;;;;;;;;;;;;;;-139.48;100.00;61774.03;4997401;28;20292;-70
2022/01/28 03:29:56;;;;;;;;;;;;;;;-139.48;100.00;61774.03;4995978;28;19925;-70
2022/01/28 03:32:40;;;;;;;;;;;;;;;-139.48;100.00;61774.03;4982373;28;20029;-70
2022/01/28 03:35:24;;;;;;;;;;;;;;;-139.48;100.00;61774.03;4982191;28;19945;-70
2022/01/28 03:38:12;;;;;;;;;;;;;;;-139.48;100.00;61774.03;4997078;28;19929;-69
2022/01/28 03:40:56;;;;;;;;;;;;;;;-139.48;100.00;61774.03;4996685;28;20396;-70
2022/01/28 03:43:40;;;;;;;;;;;;;;;-139.48;100.00;61774.03;4982071;28;19928;-70
2022/01/28 03:46:25;;;;;;;;;;;;;;;-139.48;100.00;61774.03;4982386;28;19971;-70
2022/01/28 03:49:09;;;;;;;;;;;;;;;-139.48;100.00;61774.03;4996862;28;19968;-70
2022/01/28 03:51:53;;;;;;;;;;;;;;;-139.48;100.00;61774.03;4996549;28;19933;-69
2022/01/28 03:54:37;;;;;;;;;;;;;;;-139.48;100.00;61774.03;4995480;28;20349;-70
2022/01/28 03:57:21;;;;;;;;;;;;;;;-139.48;100.00;61774.03;4981738;28;19928;-69
2022/01/28 04:00:05;;;;;;;;;;;;;;;-139.48;100.00;61774.03;4996530;28;19964;-69
2022/01/28 04:02:57;;;;;;;;;;;;;;;-139.48;100.00;61774.03;4995393;28;19983;-69
2022/01/28 04:14:17;;;;;;;;;;;;;;;-139.48;100.00;61774.03;4995548;28;20425;-69
2022/01/28 04:17:21;;;;;;;;;;;;;;;-139.48;100.00;61774.03;4995217;28;19945;-69
2022/01/28 04:20:05;;;;;;;;;;;;;;;-139.48;100.00;61774.03;4996215;28;19932;-69
2022/01/28 04:22:49;;;;;;;;;;;;;;;-139.48;100.00;61774.03;4995042;28;20060;-70
2022/01/28 04:25:33;;;;;;;;;;;;;;;-139.48;100.00;61774.03;4995128;28;19925;-69
2022/01/28 04:28:17;;;;;;;;;;;;;;;-139.48;100.00;61774.03;4995065;28;19929;-69
2022/01/28 04:31:01;;;;;;;;;;;;;;;-139.48;100.00;61774.03;4980949;28;20413;-70
2022/01/28 04:33:45;;;;;;;;;;;;;;;-139.48;100.00;61774.03;4996323;28;20283;-70
2022/01/28 04:36:34;;;;;;;;;;;;;;;-139.48;100.00;61774.03;4996156;28;19924;-70
2022/01/28 04:39:34;;;;;;;;;;;;;;;-139.48;100.00;61774.03;4995855;28;20025;-69
2022/01/28 04:48:26;;;;;;;;;;;;;;;-139.48;100.00;61774.03;4994794;28;19972;-69
2022/01/28 05:06:31;;;;;;;;;;;;;;;-139.48;100.00;61774.03;4995433;28;20428;-69
2022/01/28 05:27:06;;;;;;;;;;;;;;;-139.48;100.00;61774.03;4995112;28;20013;-70
2022/01/28 05:29:50;;;;;;;;;;;;;;;-139.48;100.00;61774.03;4993562;28;19928;-70
2022/01/28 05:32:34;;;;;;;;;;;;;;;-139.48;100.00;61774.03;4994224;28;19999;-69
2022/01/28 05:35:18;;;;;;;;;;;;;;;-139.48;100.00;61774.03;4993836;28;20103;-70
2022/01/28 05:38:02;;;;;;;;;;;;;;;-139.48;100.00;61774.03;4993670;28;19928;-70
2022/01/28 05:40:46;;;;;;;;;;;;;;;-139.48;100.00;61774.03;4993600;28;19940;-69
2022/01/28 05:43:30;;;;;;;;;;;;;;;-139.48;100.00;61774.03;4993722;28;20118;-69
2022/01/28 05:46:14;;;;;;;;;;;;;;;-139.48;100.00;61774.03;4993642;28;19988;-69
2022/01/28 05:48:58;;;;;;;;;;;;;;;-139.48;100.00;61774.03;4994177;28;20055;-70
2022/01/28 05:51:42;;;;;;;;;;;;;;;-139.48;100.00;61774.03;4993539;28;19964;-70
2022/01/28 05:54:26;;;;;;;;;;;;;;;-139.48;100.00;61774.03;4994520;28;19925;-70
2022/01/28 05:57:10;;;;;;;;;;;;;;;-139.48;100.00;61774.03;4994235;28;19945;-69
2022/01/28 05:59:54;;;;;;;;;;;;;;;-139.48;100.00;61774.03;4994178;28;19932;-70
2022/01/28 06:02:38;;;;;;;;;;;;;;;-139.48;100.00;61774.03;4994145;28;19924;-70
2022/01/28 06:05:22;;;;;;;;;;;;;;;-139.48;100.00;61774.03;4994317;28;20396;-70
2022/01/28 06:08:06;;;;;;;;;;;;;;;-139.48;100.00;61774.03;4994278;28;20392;-70
2022/01/28 06:10:49;;;;;;;;;;;;;;;-139.48;100.00;61774.03;4993947;28;20436;-70
2022/01/28 06:13:33;;;;;;;;;;;;;;;-139.48;100.00;61774.03;4994202;28;19940;-69
2022/01/28 06:16:17;;;;;;;;;;;;;;;-139.48;100.00;61774.03;4993124;28;19933;-70
2022/01/28 06:19:01;;;;;;;;;;;;;;;-139.48;100.00;61774.03;4992678;28;19968;-70
2022/01/28 06:21:45;;;;;;;;;;;;;;;-139.48;100.00;61774.03;4992920;28;20421;-69
2022/01/28 06:24:29;;;;;;;;;;;;;;;-139.48;100.00;61774.03;4993237;28;19924;-69
2022/01/28 06:27:13;;;;;;;;;;;;;;;-139.48;100.00;61774.03;4994301;28;19973;-70
2022/01/28 06:29:57;;;;;;;;;;;;;;;-139.48;100.00;61774.03;4978858;28;19925;-70
2022/01/28 06:32:41;;;;;;;;;;;;;;;-139.48;100.00;61774.03;4992733;28;20159;-70
2022/01/28 06:35:25;;;;;;;;;;;;;;;-139.48;100.00;61774.03;4993439;28;19933;-69
2022/01/28 06:38:09;;;;;;;;;;;;;;;-139.48;100.00;61774.03;4992522;28;19976;-69
2022/01/28 06:40:52;;;;;;;;;;;;;;;-139.48;100.00;61774.03;4992834;28;19976;-69
2022/01/28 06:43:36;;;;;;;;;;;;;;;-139.48;100.00;61774.03;4993832;28;19924;-70
2022/01/28 06:46:20;;;;;;;;;;;;;;;-139.48;100.00;61774.03;4993633;28;19937;-69
2022/01/28 06:49:04;;;;;;;;;;;;;;;-139.48;100.00;61774.03;4979152;28;20420;-69
2022/01/28 06:51:48;;;;;;;;;;;;;;;-139.48;100.00;61774.03;4993812;28;20066;-69
2022/01/28 06:54:32;;;;;;;;;;;;;;;-139.48;100.00;61774.03;4992562;28;20013;-69
2022/01/28 06:57:16;;;;;;;;;;;;;;;-139.48;100.00;61774.03;4992609;28;20020;-69
2022/01/28 07:00:00;;;;;;;;;;;;;;;-139.48;100.00;61774.03;4992696;28;19965;-69
2022/01/28 07:02:44;;;;;;;;;;;;;;;-139.48;100.00;61774.03;4993420;28;19928;-69
2022/01/28 07:05:28;;;;;;;;;;;;;;;-139.48;100.00;61774.03;4993787;28;19925;-69
2022/01/28 07:08:12;;;;;;;;;;;;;;;-139.48;100.00;61774.03;4992415;28;19925;-69
2022/01/28 07:10:56;;;;;;;;;;;;;;;-139.48;100.00;61774.03;4978867;28;19925;-69
2022/01/28 07:13:40;;;;;;;;;;;;;;;-139.48;100.00;61774.03;4993375;28;20391;-69
2022/01/28 07:16:24;;;;;;;;;;;;;;;-139.48;100.00;61774.03;4993528;28;20424;-69
2022/01/28 07:19:09;;;;;;;;;;;;;;;-139.48;100.00;61774.03;4992181;28;19929;-73
2022/01/28 07:21:53;;;;;;;;;;;;;;;-139.48;100.00;61774.03;4993825;28;20330;-73
2022/01/28 07:24:37;;;;;;;;;;;;;;;-139.48;100.00;61774.03;4993492;28;19969;-69
2022/01/28 07:27:22;;;;;;;;;;;;;;;-139.48;100.00;61774.03;4993427;28;19960;-70
2022/01/28 07:30:06;;;;;;;;;;;;;;;-139.48;100.00;61774.03;4992057;28;19925;-70
2022/01/28 07:32:51;;;;;;;;;;;;;;;-139.48;100.00;61774.03;4992496;28;20084;-70
2022/01/28 07:35:35;;;;;;;;;;;;;;;-139.48;100.00;61774.03;4992219;28;19925;-69
2022/01/28 07:38:19;;;;;;;;;;;;;;;-139.48;100.00;61774.03;4992127;28;19971;-69
2022/01/28 07:41:04;;;;;;;;;;;;;;;-139.48;100.00;61774.03;4993160;28;19924;-69
2022/01/28 07:43:48;;;;;;;;;;;;;;;-139.48;100.00;61774.03;4993259;28;19925;-69
2022/01/28 07:46:32;;;;;;;;;;;;;;;-139.48;100.00;61774.03;4993168;28;19948;-69
2022/01/28 07:49:15;;;;;;;;;;;;;;;-139.48;100.00;61774.03;4994351;28;19956;-69
2022/01/28 07:51:59;;;;;;;;;;;;;;;-139.48;100.00;61774.03;4995839;28;19925;-69
2022/01/28 07:54:48;;;;;;;;;;;;;;;-139.48;100.00;61774.03;4995802;28;19924;-69
2022/01/28 07:57:32;;;;;;;;;;;;;;;-139.48;100.00;61774.03;4995640;28;19929;-69
2022/01/28 08:00:16;;;;;;;;;;;;;;;-139.48;100.00;61774.03;4995404;28;19927;-69
2022/01/28 08:03:00;;;;;;;;;;;;;;;-139.48;100.00;61774.03;4995283;28;20357;-69
2022/01/28 08:05:44;;;;;;;;;;;;;;;-139.48;100.00;61774.03;4996800;28;20277;-69
2022/01/28 08:08:28;;;;;;;;;;;;;;;-139.48;100.00;61774.03;4996478;28;20020;-69
2022/01/28 08:11:12;;;;;;;;;;;;;;;-139.48;100.00;61774.03;4994945;28;19925;-69
2022/01/28 08:13:56;;;;;;;;;;;;;;;-139.48;100.00;61774.03;4995294;28;19924;-70
2022/01/28 08:16:40;;;;;;;;;;;;;;;-139.48;100.00;61774.03;4996478;28;19925;-69
2022/01/28 08:19:24;;;;;;;;;;;;;;;-139.48;100.00;61774.03;4996261;28;19929;-69
2022/01/28 08:22:07;;;;;;;;;;;;;;;-139.48;100.00;61774.03;4996109;28;20393;-68
2022/01/28 08:24:52;;;;;;;;;;;;;;;-139.48;100.00;61774.03;4996194;28;20381;-69
2022/01/28 08:27:35;;;;;;;;;;;;;;;-139.48;100.00;61774.03;4981401;28;19924;-68
2022/01/28 08:30:20;;;;;;;;;;;;;;;-139.48;100.00;61774.03;4995847;28;20064;-69
2022/01/28 08:33:05;;;;;;;;;;;;;;;-139.48;100.00;61774.03;4995020;28;19925;-69
2022/01/28 08:35:53;;;;;;;;;;;;;;;-139.48;100.00;61774.03;4996190;28;19968;-68
2022/01/28 08:38:56;;;;;;;;;;;;;;;-139.48;100.00;61774.03;4996010;28;20060;-69
2022/01/28 08:41:42;;;;;;;;;;;;;;;-139.48;100.00;61774.03;4995104;28;19924;-68
2022/01/28 08:44:27;;;;;;;;;;;;;;;-139.48;100.00;61774.03;4995183;28;19933;-69
2022/01/28 08:47:11;;;;;;;;;;;;;;;-139.48;100.00;61774.03;4994768;28;20297;-69
2022/01/28 08:49:55;;;;;;;;;;;;;;;-139.48;100.00;61774.03;5019257;22;19928;-71
2022/01/28 08:52:38;;;;;;;;;;;;;;;-139.48;100.00;61774.03;4993891;28;20017;-70
2022/01/28 08:55:22;;;;;;;;;;;;;;;-139.48;100.00;61774.03;4995480;28;19924;-70
2022/01/28 08:58:06;;;;;;;;;;;;;;;-139.48;100.00;61774.03;4995288;28;20360;-70
2022/01/28 09:00:51;;;;;;;;;;;;;;;-139.48;100.00;61774.03;4995432;28;19976;-69
2022/01/28 09:03:35;;;;;;;;;;;;;;;-139.48;100.00;61774.03;4981157;28;20389;-71
2022/01/28 09:06:19;;;;;;;;;;;;;;;-139.48;100.00;61774.03;4995504;28;19968;-72
2022/01/28 09:09:03;;;;;;;;;;;;;;;-139.48;100.00;61774.03;4995175;28;19929;-71
2022/01/28 09:11:54;;;;;;;;;;;;;;;-139.48;100.00;61774.03;4995350;28;19980;-70
2022/01/28 09:14:37;;;;;;;;;;;;;;;-139.48;100.00;61774.03;4995052;28;20325;-71
2022/01/28 09:17:21;;;;;;;;;;;;;;;-139.48;100.00;61774.03;4995115;28;19936;-71
2022/01/28 09:20:06;;;;;;;;;;;;;;;-139.48;100.00;61774.03;4994853;28;20408;-72
2022/01/28 09:22:50;;;;;;;;;;;;;;;-139.48;100.00;61774.03;4994128;28;20016;-71
2022/01/28 09:25:34;;;;;;;;;;;;;;;-139.48;100.00;61774.03;4993831;28;19924;-71
2022/01/28 09:28:17;;;;;;;;;;;;;;;-139.48;100.00;61774.03;4994858;28;20048;-72
2022/01/28 09:31:01;;;;;;;;;;;;;;;-139.48;100.00;61774.03;4994868;28;19925;-72
2022/01/28 09:33:45;;;;;;;;;;;;;;;-139.48;100.00;61774.03;4994951;28;19924;-71
2022/01/28 09:36:29;;;;;;;;;;;;;;;-139.48;100.00;61774.03;4993928;28;19925;-71
2022/01/28 09:39:13;;;;;;;;;;;;;;;-139.48;100.00;61774.03;4994865;28;19932;-71
2022/01/28 09:42:02;;;;;;;;;;;;;;;-139.48;100.00;61774.03;4994472;28;19964;-71
2022/01/28 09:44:46;;;;;;;;;;;;;;;-139.48;100.00;61774.03;4993981;28;20423;-71
2022/01/28 09:47:30;;;;;;;;;;;;;;;-139.48;100.00;61774.03;4979670;28;19924;-71
2022/01/28 09:50:14;;;;;;;;;;;;;;;-139.48;100.00;61774.03;4993138;28;19925;-71
2022/01/28 09:52:58;;;;;;;;;;;;;;;-139.48;100.00;61774.03;4994300;28;19924;-71
2022/01/28 09:55:45;;;;;;;;;;;;;;;-139.48;100.00;61774.03;4980119;28;19972;-71
2022/01/28 09:58:29;;;;;;;;;;;;;;;-139.48;100.00;61774.03;4993159;28;19933;-71
2022/01/28 10:01:13;;;;;;;;;;;;;;;-139.48;100.00;61774.03;4994233;28;19976;-71
2022/01/28 10:04:00;;;;;;;;;;;;;;;-139.48;100.00;61774.03;4993165;28;19925;-71
2022/01/28 10:06:45;;;;;;;;;;;;;;;-139.48;100.00;61774.03;4993669;28;19963;-71
2022/01/28 10:09:29;;;;;;;;;;;;;;;-139.48;100.00;61774.03;4994088;28;19925;-70
2022/01/28 10:12:17;;;;;;;;;;;;;;;-139.48;100.00;61774.03;4978553;28;19968;-72
2022/01/28 10:15:05;;;;;;;;;;;;;;;-139.48;100.00;61774.03;4994194;28;20285;-70
2022/01/28 10:17:55;;;;;;;;;;;;;;;-139.48;100.00;61774.03;4994264;28;19933;-70
2022/01/28 10:20:39;;;;;;;;;;;;;;;-139.48;100.00;61774.03;4993802;28;19925;-73
2022/01/28 10:23:23;;;;;;;;;;;;;;;-139.48;100.00;61774.03;4993059;28;20309;-72
2022/01/28 10:26:07;;;;;;;;;;;;;;;-139.48;100.00;61774.03;4979609;28;20277;-71
2022/01/28 10:28:52;;;;;;;;;;;;;;;-139.48;100.00;61774.03;4994358;28;19928;-71
2022/01/28 10:31:39;;;;;;;;;;;;;;;-139.48;100.00;61774.03;4992678;28;20025;-70
2022/01/28 10:34:26;;;;;;;;;;;;;;;-139.48;100.00;61774.03;4992676;28;19941;-72
2022/01/28 10:37:10;;;;;;;;;;;;;;;-139.48;100.00;61774.03;4993784;28;20009;-73
2022/01/28 10:39:57;;;;;;;;;;;;;;;-139.48;100.00;61774.03;4991969;28;20416;-71
2022/01/28 10:42:52;;;;;;;;;;;;;;;-139.48;100.00;61774.03;4977003;28;19968;-73
2022/01/28 10:45:36;;;;;;;;;;;;;;;-139.48;100.00;61774.03;4990533;28;19925;-65
2022/01/28 10:48:23;;;;;;;;;;;;;;;-139.48;100.00;61774.03;4991664;28;20301;-71
2022/01/28 10:51:07;;;;;;;;;;;;;;;-139.48;100.00;61774.03;4976582;28;19928;-70
2022/01/28 10:54:03;;;;;;;;;;;;;;;-139.48;100.00;61774.03;4990685;28;19925;-69
2022/01/28 10:56:53;;;;;;;;;;;;;;;-139.48;100.00;61774.03;4993515;28;19971;-69
2022/01/28 10:59:38;;;;;;;;;;;;;;;-139.48;100.00;61774.03;4992623;28;20397;-70
2022/01/28 11:02:24;;;;;;;;;;;;;;;-139.48;100.00;61774.03;4993714;28;20406;-69
2022/01/28 11:05:08;;;;;;;;;;;;;;;-139.48;100.00;61774.03;4992446;28;19974;-69
2022/01/28 11:07:52;;;;;;;;;;;;;;;-139.48;100.00;61774.03;4992392;28;20009;-69
2022/01/28 11:10:39;;;;;;;;;;;;;;;-139.48;100.00;61774.03;4991576;28;21431;-69
2022/01/28 11:13:23;;;;;;;;;;;;;;;-139.48;100.00;61774.03;4992640;28;19944;-71
2022/01/28 11:16:06;;;;;;;;;;;;;;;-139.48;100.00;61774.03;4992521;28;20293;-72
2022/01/28 11:18:50;;;;;;;;;;;;;;;-139.48;100.00;61774.03;4992478;28;19929;-71
2022/01/28 11:21:37;;;;;;;;;;;;;;;-139.48;100.00;61774.03;4993301;28;20258;-71
2022/01/28 11:24:48;;;;;;;;;;;;;;;-139.48;100.00;61774.03;4997048;28;20381;-72
2022/01/28 11:27:36;;;;;;;;;;;;;;;-139.48;100.00;61774.03;4996259;28;19937;-72
2022/01/28 11:30:28;;;;;;;;;;;;;;;-139.48;100.00;61774.03;4996901;28;19924;-71
2022/01/28 11:33:13;;;;;;;;;;;;;;;-139.48;100.00;61774.03;4995919;28;19925;-71
2022/01/28 11:35:57;;;;;;;;;;;;;;;-139.48;100.00;61774.03;4996000;28;19963;-71
2022/01/28 11:38:42;;;;;;;;;;;;;;;-139.48;100.00;61774.03;4996613;28;19929;-71
2022/01/28 11:41:25;;;;;;;;;;;;;;;-139.48;100.00;61774.03;4995560;28;20285;-71
2022/01/28 11:44:09;;;;;;;;;;;;;;;-139.48;100.00;61774.03;4996923;28;19964;-70
2022/01/28 11:46:57;;;;;;;;;;;;;;;-139.48;100.00;61774.03;4995969;28;19929;-67
2022/01/28 11:49:52;;;;;;;;;;;;;;;-139.48;100.00;61774.03;4981802;28;19933;-70
2022/01/28 11:52:40;;;;;;;;;;;;;;;-139.48;100.00;61774.03;4995788;28;19929;-69
2022/01/28 11:55:26;;;;;;;;;;;;;;;-139.48;100.00;61774.03;4995561;28;20520;-70
2022/01/28 11:58:13;;;;;;;;;;;;;;;-139.48;100.00;61774.03;4996444;28;19944;-70
2022/01/28 12:00:57;;;;;;;;;;;;;;;-139.48;100.00;61774.03;4995389;28;20013;-70
2022/01/28 12:03:41;;;;;;;;;;;;;;;-139.48;100.00;61774.03;4995400;28;19979;-70
2022/01/28 12:06:25;;;;;;;;;;;;;;;-139.48;100.00;61774.03;4996474;28;20388;-71
2022/01/28 12:09:09;;;;;;;;;;;;;;;-139.48;100.00;61774.03;4995411;28;19940;-69
2022/01/28 12:11:53;;;;;;;;;;;;;;;-139.48;100.00;61774.03;4996118;28;20172;-69
2022/01/28 12:17:52;;;;;;;;;;;;;;;-139.48;100.00;61774.03;4996260;28;19928;-68
2022/01/28 12:20:36;;;;;;;;;;;;;;;-139.48;100.00;61774.03;4995037;28;19925;-69
2022/01/28 12:23:25;;;;;;;;;;;;;;;-139.48;100.00;61774.03;4996326;28;20325;-69
2022/01/28 12:26:11;;;;;;;;;;;;;;;-139.48;100.00;61774.03;4996253;28;19988;-67
2022/01/28 12:28:55;;;;;;;;;;;;;;;-139.48;100.00;61774.03;4994934;28;20064;-68
2022/01/28 12:31:39;;;;;;;;;;;;;;;-139.48;100.00;61774.03;4995117;28;19964;-69
2022/01/28 12:34:23;;;;;;;;;;;;;;;-139.48;100.00;61774.03;4994257;28;19924;-69
2022/01/28 12:37:07;;;;;;;;;;;;;;;-139.48;100.00;61774.03;4981160;28;20384;-69
2022/01/28 12:39:59;;;;;;;;;;;;;;;-139.48;100.00;61774.03;4994877;28;20501;-69
2022/01/28 12:42:43;;;;;;;;;;;;;;;-139.48;100.00;61774.03;4995987;28;19932;-69
2022/01/28 12:45:27;;;;;;;;;;;;;;;-139.48;100.00;61774.03;4995581;28;19924;-69
2022/01/28 12:48:11;;;;;;;;;;;;;;;-139.48;100.00;61774.03;4995540;28;19925;-69
2022/01/28 12:50:56;;;;;;;;;;;;;;;-139.48;100.00;61774.03;4994477;28;19936;-69
2022/01/28 12:53:41;;;;;;;;;;;;;;;-139.48;100.00;61774.03;4994768;28;20017;-70
2022/01/28 12:56:43;;;;;;;;;;;;;;;-139.48;100.00;61774.03;4995666;28;20067;-69
2022/01/28 12:59:27;;;;;;;;;;;;;;;-139.48;100.00;61774.03;4980738;28;20365;-69
2022/01/28 13:02:11;;;;;;;;;;;;;;;-139.48;100.00;61774.03;4995218;28;19983;-69
2022/01/28 13:10:45;;;;;;;;;;;;;;;-139.48;100.00;61774.03;4995124;28;19968;-69
2022/01/28 13:13:29;;;;;;;;;;;;;;;-139.48;100.00;61774.03;4995374;28;20403;-69
2022/01/28 13:16:13;;;;;;;;;;;;;;;-139.48;100.00;61774.03;4995618;28;19925;-69
2022/01/28 13:18:57;;;;;;;;;;;;;;;-139.48;100.00;61774.03;4980371;28;19932;-70
2022/01/28 13:21:41;;;;;;;;;;;;;;;-139.48;100.00;61774.03;4995124;28;19939;-70
2022/01/28 13:24:26;;;;;;;;;;;;;;;-139.48;100.00;61774.03;4994040;28;19924;-70
2022/01/28 13:27:10;;;;;;;;;;;;;;;-139.48;100.00;61774.03;4994805;28;19925;-67
2022/01/28 13:29:54;;;;;;;;;;;;;;;-139.48;100.00;61774.03;4994672;28;19928;-69
2022/01/28 13:32:40;;;;;;;;;;;;;;;-139.48;100.00;61774.03;4994690;28;19957;-69
2022/01/28 13:35:24;;;;;;;;;;;;;;;-139.48;100.00;61774.03;4993962;28;19996;-69
2022/01/28 13:38:15;;;;;;;;;;;;;;;-139.48;100.00;61774.03;4994811;28;20019;-69
2022/01/28 13:40:59;;;;;;;;;;;;;;;-139.48;100.00;61774.03;4994912;28;20004;-67
2022/01/28 13:43:43;;;;;;;;;;;;;;;-139.48;100.00;61774.03;4993559;28;20447;-69
2022/01/28 13:46:31;;;;;;;;;;;;;;;-139.48;100.00;61774.03;4978964;28;19924;-69
2022/01/28 13:49:16;;;;;;;;;;;;;;;-139.48;100.00;61774.03;4994464;28;19964;-70
2022/01/28 13:52:16;;;;;;;;;;;;;;;-139.48;100.00;61774.03;4992991;28;19968;-69
2022/01/28 13:55:01;;;;;;;;;;;;;;;-139.48;100.00;61774.03;4993486;28;20513;-68
2022/01/28 13:57:45;;;;;;;;;;;;;;;-139.48;100.00;61774.03;4993150;28;19929;-70
2022/01/28 14:00:38;;;;;;;;;;;;;;;-139.48;100.00;61774.03;4993324;28;20388;-69
2022/01/28 14:03:22;;;;;;;;;;;;;;;-139.48;100.00;61774.03;4993448;28;19940;-68
2022/01/28 14:06:06;;;;;;;;;;;;;;;-139.48;100.00;61774.03;4994254;28;20357;-67
2022/01/28 14:08:52;;;;;;;;;;;;;;;-139.48;100.00;61774.03;4993088;28;19940;-75
2022/01/28 14:11:38;;;;;;;;;;;;;;;-139.48;100.00;61774.03;4993406;28;19972;-71
2022/01/28 14:14:24;;;;;;;;;;;;;;;-139.48;100.00;61774.03;4994087;28;20060;-71
2022/01/28 14:17:10;;;;;;;;;;;;;;;-139.48;100.00;61774.03;4993260;28;19925;-73
2022/01/28 14:19:54;;;;;;;;;;;;;;;-139.48;100.00;61774.03;4979762;28;20348;-75
2022/01/28 14:22:38;;;;;;;;;;;;;;;-139.48;100.00;61774.03;4993397;28;19972;-76
2022/01/28 14:25:22;;;;;;;;;;;;;;;-139.48;100.00;61774.03;4994075;28;19968;-73
2022/01/28 14:31:11;;;;;;;;;;;;;;;-139.48;100.00;61774.03;4994007;28;20281;-75
2022/01/28 14:33:55;;;;;;;;;;;;;;;-139.48;100.00;61774.03;4994166;28;20024;-74
2022/01/28 14:36:40;;;;;;;;;;;;;;;-139.48;100.00;61774.03;4993919;28;19967;-75
2022/01/28 14:39:24;;;;;;;;;;;;;;;-139.48;100.00;61774.03;4993842;28;20028;-75
2022/01/28 14:42:08;;;;;;;;;;;;;;;-139.48;100.00;61774.03;4993498;28;19972;-72
2022/01/28 14:44:52;;;;;;;;;;;;;;;-139.48;100.00;61774.03;4992801;28;19925;-72
2022/01/28 14:47:36;;;;;;;;;;;;;;;-139.48;100.00;61774.03;4994019;28;20019;-73
2022/01/28 14:50:20;;;;;;;;;;;;;;;-139.48;100.00;61774.03;4992514;28;20011;-73
2022/01/28 14:53:04;;;;;;;;;;;;;;;-139.48;100.00;61774.03;4992778;28;19933;-74
2022/01/28 14:55:47;;;;;;;;;;;;;;;-139.48;100.00;61774.03;4992514;28;19976;-75
2022/01/28 14:58:31;;;;;;;;;;;;;;;-139.48;100.00;61774.03;4996820;28;19928;-73
2022/01/28 15:01:15;;;;;;;;;;;;;;;-139.48;100.00;61774.03;4996442;28;19976;-74
2022/01/28 15:04:00;;;;;;;;;;;;;;;-139.48;100.00;61774.03;4996779;28;20037;-74
2022/01/28 15:06:44;;;;;;;;;;;;;;;-139.48;100.00;61774.03;4997952;28;20071;-74
2022/01/28 15:09:27;;;;;;;;;;;;;;;-139.48;100.00;61774.03;4996574;28;20023;-73
2022/01/28 15:12:11;;;;;;;;;;;;;;;-139.48;100.00;61774.03;4997291;28;20006;-73
2022/01/28 15:14:55;;;;;;;;;;;;;;;-139.48;100.00;61774.03;5029507;22;19964;-69
2022/01/28 15:17:39;;;;;;;;;;;;;;;-139.48;100.00;61774.03;5015927;28;19927;-67
2022/01/28 15:20:24;;;;;;;;;;;;;;;-139.48;100.00;61774.03;5017083;28;19925;-70
2022/01/28 15:23:07;;;;;;;;;;;;;;;-139.48;100.00;61774.03;5016001;28;20361;-69
2022/01/28 15:25:51;;;;;;;;;;;;;;;-139.48;100.00;61774.03;5015623;28;20107;-70